sensor_id;sensor_type;location;lat;lon;timestamp;temperature;humidity
20680;DHT22;10499;47.494;7.608;2022-09-09T00:02:21;16.70;99.90
20680;DHT22;10499;47.494;7.608;2022-09-09T00:07:51;16.70;99.90
20680;DHT22;10499;47.494;7.608;2022-09-09T00:10:39;16.80;99.90
20680;DHT22;10499;47.494;7.608;2022-09-09T00:13:24;16.90;99.90
20680;DHT22;10499;47.494;7.608;2022-09-09T00:16:17;17.00;99.90
20680;DHT22;10499;47.494;7.608;2022-09-09T00:21:43;17.20;99.90
20680;DHT22;10499;47.494;7.608;2022-09-09T00:24:34;17.20;99.90
20680;DHT22;10499;47.494;7.608;2022-09-09T00:27:27;17.10;99.90
20680;DHT22;10499;47.494;7.608;2022-09-09T00:30:19;17.10;99.90
20680;DHT22;10499;47.494;7.608;2022-09-09T00:32:49;17.00;99.90
20680;DHT22;10499;47.494;7.608;2022-09-09T00:37:48;17.10;99.90
20680;DHT22;10499;47.494;7.608;2022-09-09T00:42:52;17.20;99.90
20680;DHT22;10499;47.494;7.608;2022-09-09T00:51:15;17.20;99.90
20680;DHT22;10499;47.494;7.608;2022-09-09T00:53:58;17.20;99.90
20680;DHT22;10499;47.494;7.608;2022-09-09T00:56:37;17.20;99.90
20680;DHT22;10499;47.494;7.608;2022-09-09T00:59:25;17.20;99.90
20680;DHT22;10499;47.494;7.608;2022-09-09T01:01:53;17.30;99.90
20680;DHT22;10499;47.494;7.608;2022-09-09T01:04:29;17.30;99.90
20680;DHT22;10499;47.494;7.608;2022-09-09T01:07:08;17.20;99.90
20680;DHT22;10499;47.494;7.608;2022-09-09T01:12:16;17.20;99.90
20680;DHT22;10499;47.494;7.608;2022-09-09T01:14:48;17.20;99.90
20680;DHT22;10499;47.494;7.608;2022-09-09T01:20:05;17.20;99.90
20680;DHT22;10499;47.494;7.608;2022-09-09T01:25:20;17.20;99.90
20680;DHT22;10499;47.494;7.608;2022-09-09T01:27:48;17.20;99.90
20680;DHT22;10499;47.494;7.608;2022-09-09T01:30:17;17.20;99.90
20680;DHT22;10499;47.494;7.608;2022-09-09T01:32:49;17.20;99.90
20680;DHT22;10499;47.494;7.608;2022-09-09T01:37:48;17.10;99.90
20680;DHT22;10499;47.494;7.608;2022-09-09T01:42:40;17.10;99.90
20680;DHT22;10499;47.494;7.608;2022-09-09T01:45:06;17.10;99.90
20680;DHT22;10499;47.494;7.608;2022-09-09T01:47:32;17.10;99.90
20680;DHT22;10499;47.494;7.608;2022-09-09T01:49:58;17.00;99.90
20680;DHT22;10499;47.494;7.608;2022-09-09T01:52:26;16.90;99.90
20680;DHT22;10499;47.494;7.608;2022-09-09T01:54:51;16.90;99.90
20680;DHT22;10499;47.494;7.608;2022-09-09T01:59:52;16.80;99.90
20680;DHT22;10499;47.494;7.608;2022-09-09T02:08:23;16.90;99.90
20680;DHT22;10499;47.494;7.608;2022-09-09T02:11:03;16.90;99.90
20680;DHT22;10499;47.494;7.608;2022-09-09T02:13:32;17.00;99.90
20680;DHT22;10499;47.494;7.608;2022-09-09T02:16:17;17.00;99.90
20680;DHT22;10499;47.494;7.608;2022-09-09T02:21:34;16.90;99.90
20680;DHT22;10499;47.494;7.608;2022-09-09T02:24:04;16.90;99.90
20680;DHT22;10499;47.494;7.608;2022-09-09T02:26:32;17.00;99.90
20680;DHT22;10499;47.494;7.608;2022-09-09T02:29:00;16.90;99.90
20680;DHT22;10499;47.494;7.608;2022-09-09T02:31:27;17.00;99.90
20680;DHT22;10499;47.494;7.608;2022-09-09T02:33:57;17.00;99.90
20680;DHT22;10499;47.494;7.608;2022-09-09T02:36:27;17.10;99.90
20680;DHT22;10499;47.494;7.608;2022-09-09T02:38:54;17.00;99.90
20680;DHT22;10499;47.494;7.608;2022-09-09T02:41:24;17.00;99.90
20680;DHT22;10499;47.494;7.608;2022-09-09T02:43:51;17.10;99.90
20680;DHT22;10499;47.494;7.608;2022-09-09T02:49:25;17.00;99.90
20680;DHT22;10499;47.494;7.608;2022-09-09T02:52:13;17.00;99.90
20680;DHT22;10499;47.494;7.608;2022-09-09T02:54:42;16.80;99.90
20680;DHT22;10499;47.494;7.608;2022-09-09T02:57:17;16.80;99.90
20680;DHT22;10499;47.494;7.608;2022-09-09T02:59:45;16.70;99.90
20680;DHT22;10499;47.494;7.608;2022-09-09T03:02:12;16.70;99.90
20680;DHT22;10499;47.494;7.608;2022-09-09T03:07:04;16.60;99.90
20680;DHT22;10499;47.494;7.608;2022-09-09T03:09:31;16.70;99.90
20680;DHT22;10499;47.494;7.608;2022-09-09T03:11:58;16.70;99.90
20680;DHT22;10499;47.494;7.608;2022-09-09T03:14:23;16.90;99.90
20680;DHT22;10499;47.494;7.608;2022-09-09T03:16:53;16.90;99.90
20680;DHT22;10499;47.494;7.608;2022-09-09T03:19:20;17.10;99.90
20680;DHT22;10499;47.494;7.608;2022-09-09T03:21:46;17.00;99.90
20680;DHT22;10499;47.494;7.608;2022-09-09T03:24:13;17.10;99.90
20680;DHT22;10499;47.494;7.608;2022-09-09T03:26:40;17.00;99.90
20680;DHT22;10499;47.494;7.608;2022-09-09T03:29:06;17.00;99.90
20680;DHT22;10499;47.494;7.608;2022-09-09T03:31:33;17.00;99.90
20680;DHT22;10499;47.494;7.608;2022-09-09T03:36:26;16.80;99.90
20680;DHT22;10499;47.494;7.608;2022-09-09T03:38:52;16.80;99.90
20680;DHT22;10499;47.494;7.608;2022-09-09T03:41:20;16.80;99.90
20680;DHT22;10499;47.494;7.608;2022-09-09T03:43:46;16.80;99.90
20680;DHT22;10499;47.494;7.608;2022-09-09T03:46:11;16.80;99.90
20680;DHT22;10499;47.494;7.608;2022-09-09T03:48:38;16.80;99.90
20680;DHT22;10499;47.494;7.608;2022-09-09T03:51:03;16.80;99.90
20680;DHT22;10499;47.494;7.608;2022-09-09T03:53:29;16.90;99.90
20680;DHT22;10499;47.494;7.608;2022-09-09T03:55:56;17.00;99.90
20680;DHT22;10499;47.494;7.608;2022-09-09T03:58:26;17.00;99.90
20680;DHT22;10499;47.494;7.608;2022-09-09T04:01:04;17.00;99.90
20680;DHT22;10499;47.494;7.608;2022-09-09T04:03:30;17.00;99.90
20680;DHT22;10499;47.494;7.608;2022-09-09T04:05:58;17.00;99.90
20680;DHT22;10499;47.494;7.608;2022-09-09T04:08:23;17.00;99.90
20680;DHT22;10499;47.494;7.608;2022-09-09T04:10:52;17.00;99.90
20680;DHT22;10499;47.494;7.608;2022-09-09T04:13:19;17.00;99.90
20680;DHT22;10499;47.494;7.608;2022-09-09T04:15:51;16.90;99.90
20680;DHT22;10499;47.494;7.608;2022-09-09T04:18:17;16.90;99.90
20680;DHT22;10499;47.494;7.608;2022-09-09T04:20:49;16.80;99.90
20680;DHT22;10499;47.494;7.608;2022-09-09T04:23:16;16.70;99.90
20680;DHT22;10499;47.494;7.608;2022-09-09T04:25:50;16.70;99.90
20680;DHT22;10499;47.494;7.608;2022-09-09T04:28:17;16.70;99.90
20680;DHT22;10499;47.494;7.608;2022-09-09T04:30:44;16.70;99.90
20680;DHT22;10499;47.494;7.608;2022-09-09T04:33:10;16.70;99.90
20680;DHT22;10499;47.494;7.608;2022-09-09T04:35:37;16.80;99.90
20680;DHT22;10499;47.494;7.608;2022-09-09T04:38:04;16.80;99.90
20680;DHT22;10499;47.494;7.608;2022-09-09T04:40:31;16.80;99.90
20680;DHT22;10499;47.494;7.608;2022-09-09T04:43:01;16.80;99.90
20680;DHT22;10499;47.494;7.608;2022-09-09T04:45:28;16.80;99.90
20680;DHT22;10499;47.494;7.608;2022-09-09T04:47:54;16.80;99.90
20680;DHT22;10499;47.494;7.608;2022-09-09T04:52:46;16.80;99.90
20680;DHT22;10499;47.494;7.608;2022-09-09T04:55:12;16.80;99.90
20680;DHT22;10499;47.494;7.608;2022-09-09T04:57:38;16.70;99.90
20680;DHT22;10499;47.494;7.608;2022-09-09T05:00:05;16.70;99.90
20680;DHT22;10499;47.494;7.608;2022-09-09T05:02:30;16.70;99.90
20680;DHT22;10499;47.494;7.608;2022-09-09T05:04:57;16.80;99.90
20680;DHT22;10499;47.494;7.608;2022-09-09T05:07:24;16.80;99.90
20680;DHT22;10499;47.494;7.608;2022-09-09T05:09:51;16.80;99.90
20680;DHT22;10499;47.494;7.608;2022-09-09T05:12:17;16.80;99.90
20680;DHT22;10499;47.494;7.608;2022-09-09T05:14:43;16.80;99.90
20680;DHT22;10499;47.494;7.608;2022-09-09T05:17:09;16.80;99.90
20680;DHT22;10499;47.494;7.608;2022-09-09T05:19:35;16.80;99.90
20680;DHT22;10499;47.494;7.608;2022-09-09T05:22:01;16.80;99.90
20680;DHT22;10499;47.494;7.608;2022-09-09T05:24:27;16.80;99.90
20680;DHT22;10499;47.494;7.608;2022-09-09T05:26:53;16.90;99.90
20680;DHT22;10499;47.494;7.608;2022-09-09T05:29:19;16.80;99.90
20680;DHT22;10499;47.494;7.608;2022-09-09T05:31:45;16.90;99.90
20680;DHT22;10499;47.494;7.608;2022-09-09T05:34:12;16.90;99.90
20680;DHT22;10499;47.494;7.608;2022-09-09T05:36:38;16.90;99.90
20680;DHT22;10499;47.494;7.608;2022-09-09T05:39:25;16.90;99.90
20680;DHT22;10499;47.494;7.608;2022-09-09T05:41:51;16.90;99.90
20680;DHT22;10499;47.494;7.608;2022-09-09T05:44:17;16.90;99.90
20680;DHT22;10499;47.494;7.608;2022-09-09T05:46:42;16.90;99.90
20680;DHT22;10499;47.494;7.608;2022-09-09T05:49:08;16.90;99.90
20680;DHT22;10499;47.494;7.608;2022-09-09T05:51:34;17.00;99.90
20680;DHT22;10499;47.494;7.608;2022-09-09T05:53:59;17.00;99.90
20680;DHT22;10499;47.494;7.608;2022-09-09T05:56:27;17.10;99.90
20680;DHT22;10499;47.494;7.608;2022-09-09T05:58:54;17.20;99.90
20680;DHT22;10499;47.494;7.608;2022-09-09T06:01:25;17.30;99.90
20680;DHT22;10499;47.494;7.608;2022-09-09T06:03:51;17.40;99.90
20680;DHT22;10499;47.494;7.608;2022-09-09T06:06:23;17.50;99.90
20680;DHT22;10499;47.494;7.608;2022-09-09T06:08:52;17.50;99.90
20680;DHT22;10499;47.494;7.608;2022-09-09T06:11:20;17.60;99.90
20680;DHT22;10499;47.494;7.608;2022-09-09T06:13:47;17.70;99.90
20680;DHT22;10499;47.494;7.608;2022-09-09T06:16:15;17.80;99.90
20680;DHT22;10499;47.494;7.608;2022-09-09T06:18:42;17.80;99.90
20680;DHT22;10499;47.494;7.608;2022-09-09T06:21:15;17.90;99.90
20680;DHT22;10499;47.494;7.608;2022-09-09T06:23:41;18.10;99.90
20680;DHT22;10499;47.494;7.608;2022-09-09T06:26:12;18.20;99.90
20680;DHT22;10499;47.494;7.608;2022-09-09T06:28:38;18.30;99.90
20680;DHT22;10499;47.494;7.608;2022-09-09T06:31:07;18.40;99.90
20680;DHT22;10499;47.494;7.608;2022-09-09T06:33:34;18.50;99.90
20680;DHT22;10499;47.494;7.608;2022-09-09T06:36:01;18.60;99.90
20680;DHT22;10499;47.494;7.608;2022-09-09T06:38:27;18.60;99.90
20680;DHT22;10499;47.494;7.608;2022-09-09T06:40:59;18.50;99.90
20680;DHT22;10499;47.494;7.608;2022-09-09T06:43:25;18.40;99.90
20680;DHT22;10499;47.494;7.608;2022-09-09T06:45:58;18.30;99.90
20680;DHT22;10499;47.494;7.608;2022-09-09T06:48:25;18.20;99.90
20680;DHT22;10499;47.494;7.608;2022-09-09T06:50:59;18.10;99.90
20680;DHT22;10499;47.494;7.608;2022-09-09T06:53:26;18.10;99.90
20680;DHT22;10499;47.494;7.608;2022-09-09T06:55:52;18.00;99.90
20680;DHT22;10499;47.494;7.608;2022-09-09T06:58:18;18.00;99.90
20680;DHT22;10499;47.494;7.608;2022-09-09T07:00:44;17.90;99.90
20680;DHT22;10499;47.494;7.608;2022-09-09T07:03:10;17.80;99.90
20680;DHT22;10499;47.494;7.608;2022-09-09T07:05:36;17.80;99.90
20680;DHT22;10499;47.494;7.608;2022-09-09T07:08:02;17.90;99.90
20680;DHT22;10499;47.494;7.608;2022-09-09T07:10:28;18.00;99.90
20680;DHT22;10499;47.494;7.608;2022-09-09T07:12:53;18.20;99.90
20680;DHT22;10499;47.494;7.608;2022-09-09T07:15:20;18.30;99.90
20680;DHT22;10499;47.494;7.608;2022-09-09T07:17:46;18.30;99.90
20680;DHT22;10499;47.494;7.608;2022-09-09T07:20:13;18.30;99.90
20680;DHT22;10499;47.494;7.608;2022-09-09T07:22:40;18.40;99.90
20680;DHT22;10499;47.494;7.608;2022-09-09T07:25:06;18.50;99.90
20680;DHT22;10499;47.494;7.608;2022-09-09T07:27:32;18.50;99.90
20680;DHT22;10499;47.494;7.608;2022-09-09T07:29:57;18.60;99.90
20680;DHT22;10499;47.494;7.608;2022-09-09T07:32:23;18.60;99.90
20680;DHT22;10499;47.494;7.608;2022-09-09T07:34:49;18.90;99.90
20680;DHT22;10499;47.494;7.608;2022-09-09T07:37:15;19.10;99.90
20680;DHT22;10499;47.494;7.608;2022-09-09T07:39:42;19.20;99.90
20680;DHT22;10499;47.494;7.608;2022-09-09T07:42:07;19.40;99.90
20680;DHT22;10499;47.494;7.608;2022-09-09T07:44:35;19.40;99.90
20680;DHT22;10499;47.494;7.608;2022-09-09T07:47:02;19.50;99.90
20680;DHT22;10499;47.494;7.608;2022-09-09T07:49:28;19.60;99.90
20680;DHT22;10499;47.494;7.608;2022-09-09T07:51:53;19.70;99.90
20680;DHT22;10499;47.494;7.608;2022-09-09T07:54:20;19.80;99.90
20680;DHT22;10499;47.494;7.608;2022-09-09T07:56:46;20.10;99.90
20680;DHT22;10499;47.494;7.608;2022-09-09T07:59:12;20.30;99.90
20680;DHT22;10499;47.494;7.608;2022-09-09T08:01:42;20.30;99.90
20680;DHT22;10499;47.494;7.608;2022-09-09T08:04:10;20.30;99.90
20680;DHT22;10499;47.494;7.608;2022-09-09T08:06:46;20.60;99.90
20680;DHT22;10499;47.494;7.608;2022-09-09T08:09:12;21.00;99.90
20680;DHT22;10499;47.494;7.608;2022-09-09T08:11:39;21.40;98.40
20680;DHT22;10499;47.494;7.608;2022-09-09T08:14:06;21.90;97.10
20680;DHT22;10499;47.494;7.608;2022-09-09T08:16:35;22.30;96.10
20680;DHT22;10499;47.494;7.608;2022-09-09T08:19:03;22.80;93.40
20680;DHT22;10499;47.494;7.608;2022-09-09T08:21:31;23.10;91.60
20680;DHT22;10499;47.494;7.608;2022-09-09T08:24:00;24.30;89.90
20680;DHT22;10499;47.494;7.608;2022-09-09T08:26:28;25.40;81.40
20680;DHT22;10499;47.494;7.608;2022-09-09T08:28:55;27.70;73.60
20680;DHT22;10499;47.494;7.608;2022-09-09T08:31:30;27.40;72.50
20680;DHT22;10499;47.494;7.608;2022-09-09T08:33:57;25.70;74.60
20680;DHT22;10499;47.494;7.608;2022-09-09T08:36:31;24.60;76.20
20680;DHT22;10499;47.494;7.608;2022-09-09T08:38:59;24.80;83.20
20680;DHT22;10499;47.494;7.608;2022-09-09T09:12:53;43.10;33.60
20680;DHT22;10499;47.494;7.608;2022-09-09T09:15:24;42.90;30.80
20680;DHT22;10499;47.494;7.608;2022-09-09T09:17:50;41.10;31.30
20680;DHT22;10499;47.494;7.608;2022-09-09T09:20:33;38.80;34.40
20680;DHT22;10499;47.494;7.608;2022-09-09T09:23:04;35.40;40.10
20680;DHT22;10499;47.494;7.608;2022-09-09T09:25:35;34.80;40.30
20680;DHT22;10499;47.494;7.608;2022-09-09T09:28:27;33.10;42.80
20680;DHT22;10499;47.494;7.608;2022-09-09T09:30:59;32.00;46.60
20680;DHT22;10499;47.494;7.608;2022-09-09T09:36:07;37.70;37.70
20680;DHT22;10499;47.494;7.608;2022-09-09T09:38:34;38.10;36.40
20680;DHT22;10499;47.494;7.608;2022-09-09T09:41:00;40.50;34.20
20680;DHT22;10499;47.494;7.608;2022-09-09T09:43:30;41.50;32.10
20680;DHT22;10499;47.494;7.608;2022-09-09T09:45:56;42.10;31.40
20680;DHT22;10499;47.494;7.608;2022-09-09T09:48:24;42.60;30.50
20680;DHT22;10499;47.494;7.608;2022-09-09T09:50:57;42.50;29.90
20680;DHT22;10499;47.494;7.608;2022-09-09T09:53:27;43.50;29.60
20680;DHT22;10499;47.494;7.608;2022-09-09T09:58:20;44.70;28.10
20680;DHT22;10499;47.494;7.608;2022-09-09T10:00:51;44.80;27.60
20680;DHT22;10499;47.494;7.608;2022-09-09T10:05:54;44.90;27.40
20680;DHT22;10499;47.494;7.608;2022-09-09T10:08:27;45.30;27.80
20680;DHT22;10499;47.494;7.608;2022-09-09T10:19:04;46.00;26.10
20680;DHT22;10499;47.494;7.608;2022-09-09T10:28:30;44.80;26.70
20680;DHT22;10499;47.494;7.608;2022-09-09T10:30:51;45.50;26.10
20680;DHT22;10499;47.494;7.608;2022-09-09T10:33:37;42.60;27.80
20680;DHT22;10499;47.494;7.608;2022-09-09T10:36:17;42.60;28.10
20680;DHT22;10499;47.494;7.608;2022-09-09T10:46:49;40.10;29.90
20680;DHT22;10499;47.494;7.608;2022-09-09T10:57:38;44.70;27.40
20680;DHT22;10499;47.494;7.608;2022-09-09T11:00:37;45.70;26.10
20680;DHT22;10499;47.494;7.608;2022-09-09T11:03:23;43.30;27.20
20680;DHT22;10499;47.494;7.608;2022-09-09T11:06:02;41.50;27.60
20680;DHT22;10499;47.494;7.608;2022-09-09T11:08:33;40.90;30.40
20680;DHT22;10499;47.494;7.608;2022-09-09T11:11:20;43.10;27.90
20680;DHT22;10499;47.494;7.608;2022-09-09T11:13:55;44.80;26.70
20680;DHT22;10499;47.494;7.608;2022-09-09T11:16:30;44.20;26.00
20680;DHT22;10499;47.494;7.608;2022-09-09T11:19:09;42.60;27.80
20680;DHT22;10499;47.494;7.608;2022-09-09T11:21:44;42.20;27.70
20680;DHT22;10499;47.494;7.608;2022-09-09T11:24:29;44.20;27.40
20680;DHT22;10499;47.494;7.608;2022-09-09T11:27:07;46.30;26.10
20680;DHT22;10499;47.494;7.608;2022-09-09T11:38:26;40.20;30.40
20680;DHT22;10499;47.494;7.608;2022-09-09T11:41:01;36.40;35.10
20680;DHT22;10499;47.494;7.608;2022-09-09T11:43:45;34.60;37.60
20680;DHT22;10499;47.494;7.608;2022-09-09T11:46:13;33.50;39.70
20680;DHT22;10499;47.494;7.608;2022-09-09T11:48:44;33.90;39.70
20680;DHT22;10499;47.494;7.608;2022-09-09T11:51:33;33.10;39.90
20680;DHT22;10499;47.494;7.608;2022-09-09T11:54:29;32.50;41.00
20680;DHT22;10499;47.494;7.608;2022-09-09T11:56:56;32.30;41.90
20680;DHT22;10499;47.494;7.608;2022-09-09T12:02:13;32.90;41.20
20680;DHT22;10499;47.494;7.608;2022-09-09T12:05:04;34.40;40.70
20680;DHT22;10499;47.494;7.608;2022-09-09T12:07:37;36.90;37.00
20680;DHT22;10499;47.494;7.608;2022-09-09T12:10:32;38.90;33.40
20680;DHT22;10499;47.494;7.608;2022-09-09T12:13:18;39.20;33.60
20680;DHT22;10499;47.494;7.608;2022-09-09T12:15:56;41.40;30.70
20680;DHT22;10499;47.494;7.608;2022-09-09T12:18:33;43.40;29.20
20680;DHT22;10499;47.494;7.608;2022-09-09T12:24:06;42.20;28.80
20680;DHT22;10499;47.494;7.608;2022-09-09T12:26:38;39.50;30.70
20680;DHT22;10499;47.494;7.608;2022-09-09T12:31:55;35.90;34.90
20680;DHT22;10499;47.494;7.608;2022-09-09T12:34:39;33.80;38.60
20680;DHT22;10499;47.494;7.608;2022-09-09T12:37:16;33.70;40.50
20680;DHT22;10499;47.494;7.608;2022-09-09T12:39:56;35.70;36.90
20680;DHT22;10499;47.494;7.608;2022-09-09T12:42:23;34.10;38.50
20680;DHT22;10499;47.494;7.608;2022-09-09T12:45:00;32.00;41.80
20680;DHT22;10499;47.494;7.608;2022-09-09T12:49:56;28.90;46.90
20680;DHT22;10499;47.494;7.608;2022-09-09T12:52:31;28.20;48.80
20680;DHT22;10499;47.494;7.608;2022-09-09T12:55:18;27.90;49.90
20680;DHT22;10499;47.494;7.608;2022-09-09T12:57:44;27.30;50.40
20680;DHT22;10499;47.494;7.608;2022-09-09T13:00:37;27.00;50.30
20680;DHT22;10499;47.494;7.608;2022-09-09T13:03:19;26.50;50.90
20680;DHT22;10499;47.494;7.608;2022-09-09T13:05:47;26.00;52.00
20680;DHT22;10499;47.494;7.608;2022-09-09T13:08:14;25.90;52.40
20680;DHT22;10499;47.494;7.608;2022-09-09T13:10:48;26.00;51.80
20680;DHT22;10499;47.494;7.608;2022-09-09T13:13:17;26.90;50.60
20680;DHT22;10499;47.494;7.608;2022-09-09T13:15:51;27.50;49.30
20680;DHT22;10499;47.494;7.608;2022-09-09T13:18:23;28.40;48.80
20680;DHT22;10499;47.494;7.608;2022-09-09T13:20:51;28.70;46.90
20680;DHT22;10499;47.494;7.608;2022-09-09T13:23:18;30.20;46.60
20680;DHT22;10499;47.494;7.608;2022-09-09T13:25:56;32.10;42.50
20680;DHT22;10499;47.494;7.608;2022-09-09T13:28:24;33.50;39.70
20680;DHT22;10499;47.494;7.608;2022-09-09T13:30:59;33.80;38.40
20680;DHT22;10499;47.494;7.608;2022-09-09T13:33:31;33.90;37.80
20680;DHT22;10499;47.494;7.608;2022-09-09T13:38:30;34.50;36.80
20680;DHT22;10499;47.494;7.608;2022-09-09T13:41:03;34.00;36.70
20680;DHT22;10499;47.494;7.608;2022-09-09T13:43:56;33.20;38.00
20680;DHT22;10499;47.494;7.608;2022-09-09T13:49:17;32.20;39.90
20680;DHT22;10499;47.494;7.608;2022-09-09T13:51:49;32.10;40.10
20680;DHT22;10499;47.494;7.608;2022-09-09T13:54:18;31.50;41.20
20680;DHT22;10499;47.494;7.608;2022-09-09T13:56:44;31.10;41.10
20680;DHT22;10499;47.494;7.608;2022-09-09T13:59:18;31.00;41.70
20680;DHT22;10499;47.494;7.608;2022-09-09T14:01:45;31.10;41.70
20680;DHT22;10499;47.494;7.608;2022-09-09T14:04:11;31.10;42.30
20680;DHT22;10499;47.494;7.608;2022-09-09T14:06:38;31.20;42.60
20680;DHT22;10499;47.494;7.608;2022-09-09T14:09:11;31.00;43.20
20680;DHT22;10499;47.494;7.608;2022-09-09T14:11:37;31.20;43.10
20680;DHT22;10499;47.494;7.608;2022-09-09T14:14:03;31.20;43.10
20680;DHT22;10499;47.494;7.608;2022-09-09T14:16:29;31.20;43.00
20680;DHT22;10499;47.494;7.608;2022-09-09T14:18:54;31.30;43.30
20680;DHT22;10499;47.494;7.608;2022-09-09T14:21:24;31.40;42.40
20680;DHT22;10499;47.494;7.608;2022-09-09T14:23:50;31.20;42.70
20680;DHT22;10499;47.494;7.608;2022-09-09T14:26:16;31.40;42.90
20680;DHT22;10499;47.494;7.608;2022-09-09T14:28:45;31.40;43.00
20680;DHT22;10499;47.494;7.608;2022-09-09T14:31:11;31.30;42.80
20680;DHT22;10499;47.494;7.608;2022-09-09T14:33:39;30.90;43.10
20680;DHT22;10499;47.494;7.608;2022-09-09T14:36:05;30.80;43.40
20680;DHT22;10499;47.494;7.608;2022-09-09T14:38:32;30.00;44.70
20680;DHT22;10499;47.494;7.608;2022-09-09T14:40:59;29.40;45.30
20680;DHT22;10499;47.494;7.608;2022-09-09T14:43:25;29.30;46.30
20680;DHT22;10499;47.494;7.608;2022-09-09T14:45:52;29.50;45.70
20680;DHT22;10499;47.494;7.608;2022-09-09T14:48:17;29.60;45.10
20680;DHT22;10499;47.494;7.608;2022-09-09T14:50:43;29.50;44.60
20680;DHT22;10499;47.494;7.608;2022-09-09T14:53:09;29.40;45.40
20680;DHT22;10499;47.494;7.608;2022-09-09T14:55:36;29.40;44.60
20680;DHT22;10499;47.494;7.608;2022-09-09T14:58:02;29.40;43.90
20680;DHT22;10499;47.494;7.608;2022-09-09T15:03:03;29.30;44.40
20680;DHT22;10499;47.494;7.608;2022-09-09T15:05:28;29.30;44.20
20680;DHT22;10499;47.494;7.608;2022-09-09T15:07:54;29.40;42.30
20680;DHT22;10499;47.494;7.608;2022-09-09T15:10:19;29.50;41.50
20680;DHT22;10499;47.494;7.608;2022-09-09T15:12:45;29.30;41.80
20680;DHT22;10499;47.494;7.608;2022-09-09T15:15:11;29.20;42.90
20680;DHT22;10499;47.494;7.608;2022-09-09T15:17:38;29.30;43.60
20680;DHT22;10499;47.494;7.608;2022-09-09T15:20:04;29.20;42.80
20680;DHT22;10499;47.494;7.608;2022-09-09T15:22:31;29.10;43.40
20680;DHT22;10499;47.494;7.608;2022-09-09T15:24:57;28.40;44.20
20680;DHT22;10499;47.494;7.608;2022-09-09T15:27:22;27.60;45.60
20680;DHT22;10499;47.494;7.608;2022-09-09T15:29:49;27.10;47.50
20680;DHT22;10499;47.494;7.608;2022-09-09T15:32:15;26.60;48.40
20680;DHT22;10499;47.494;7.608;2022-09-09T15:34:41;26.20;49.00
20680;DHT22;10499;47.494;7.608;2022-09-09T15:37:10;26.00;49.40
20680;DHT22;10499;47.494;7.608;2022-09-09T15:39:38;25.80;50.40
20680;DHT22;10499;47.494;7.608;2022-09-09T15:42:06;25.60;51.00
20680;DHT22;10499;47.494;7.608;2022-09-09T15:44:42;25.40;51.70
20680;DHT22;10499;47.494;7.608;2022-09-09T15:47:10;25.20;52.50
20680;DHT22;10499;47.494;7.608;2022-09-09T15:49:37;25.00;53.50
20680;DHT22;10499;47.494;7.608;2022-09-09T15:52:03;24.70;54.10
20680;DHT22;10499;47.494;7.608;2022-09-09T15:54:33;24.50;55.60
20680;DHT22;10499;47.494;7.608;2022-09-09T15:57:00;24.20;57.40
20680;DHT22;10499;47.494;7.608;2022-09-09T15:59:28;23.90;58.70
20680;DHT22;10499;47.494;7.608;2022-09-09T16:01:54;23.40;60.90
20680;DHT22;10499;47.494;7.608;2022-09-09T16:04:21;23.20;62.20
20680;DHT22;10499;47.494;7.608;2022-09-09T16:06:57;23.00;64.00
20680;DHT22;10499;47.494;7.608;2022-09-09T16:09:24;22.80;63.10
20680;DHT22;10499;47.494;7.608;2022-09-09T16:11:50;22.70;62.20
20680;DHT22;10499;47.494;7.608;2022-09-09T16:14:17;22.40;61.80
20680;DHT22;10499;47.494;7.608;2022-09-09T16:16:43;22.10;64.10
20680;DHT22;10499;47.494;7.608;2022-09-09T16:19:11;21.90;64.40
20680;DHT22;10499;47.494;7.608;2022-09-09T16:21:48;21.50;64.70
20680;DHT22;10499;47.494;7.608;2022-09-09T16:24:16;21.30;64.30
20680;DHT22;10499;47.494;7.608;2022-09-09T16:26:45;21.20;65.20
20680;DHT22;10499;47.494;7.608;2022-09-09T16:29:12;21.00;66.00
20680;DHT22;10499;47.494;7.608;2022-09-09T16:31:38;21.00;66.20
20680;DHT22;10499;47.494;7.608;2022-09-09T16:34:06;21.00;66.40
20680;DHT22;10499;47.494;7.608;2022-09-09T16:36:33;21.10;66.70
20680;DHT22;10499;47.494;7.608;2022-09-09T16:39:06;20.90;67.10
20680;DHT22;10499;47.494;7.608;2022-09-09T16:41:32;20.80;67.90
20680;DHT22;10499;47.494;7.608;2022-09-09T16:44:01;20.80;68.60
20680;DHT22;10499;47.494;7.608;2022-09-09T16:46:28;20.80;69.30
20680;DHT22;10499;47.494;7.608;2022-09-09T16:48:56;20.80;69.80
20680;DHT22;10499;47.494;7.608;2022-09-09T16:51:31;20.90;69.90
20680;DHT22;10499;47.494;7.608;2022-09-09T16:53:59;21.00;69.00
20680;DHT22;10499;47.494;7.608;2022-09-09T16:56:27;21.10;68.50
20680;DHT22;10499;47.494;7.608;2022-09-09T16:58:55;21.40;68.10
20680;DHT22;10499;47.494;7.608;2022-09-09T17:01:54;21.60;67.60
20680;DHT22;10499;47.494;7.608;2022-09-09T17:12:07;21.30;68.30
20680;DHT22;10499;47.494;7.608;2022-09-09T17:14:33;21.10;68.80
20680;DHT22;10499;47.494;7.608;2022-09-09T17:16:59;20.90;69.40
20680;DHT22;10499;47.494;7.608;2022-09-09T17:19:26;20.90;70.20
20680;DHT22;10499;47.494;7.608;2022-09-09T17:21:51;20.80;70.70
20680;DHT22;10499;47.494;7.608;2022-09-09T17:24:17;20.70;70.70
20680;DHT22;10499;47.494;7.608;2022-09-09T17:26:43;20.70;70.90
20680;DHT22;10499;47.494;7.608;2022-09-09T17:29:10;20.60;71.40
20680;DHT22;10499;47.494;7.608;2022-09-09T17:31:58;20.50;71.50
20680;DHT22;10499;47.494;7.608;2022-09-09T17:34:35;20.50;71.90
20680;DHT22;10499;47.494;7.608;2022-09-09T17:37:00;20.40;72.20
20680;DHT22;10499;47.494;7.608;2022-09-09T17:39:26;20.30;72.30
20680;DHT22;10499;47.494;7.608;2022-09-09T17:41:52;20.20;72.90
20680;DHT22;10499;47.494;7.608;2022-09-09T17:44:20;20.20;73.30
20680;DHT22;10499;47.494;7.608;2022-09-09T17:46:46;20.20;73.60
20680;DHT22;10499;47.494;7.608;2022-09-09T17:49:14;20.10;73.70
20680;DHT22;10499;47.494;7.608;2022-09-09T17:51:41;20.10;73.40
20680;DHT22;10499;47.494;7.608;2022-09-09T17:54:10;20.10;74.00
20680;DHT22;10499;47.494;7.608;2022-09-09T17:56:37;20.00;74.10
20680;DHT22;10499;47.494;7.608;2022-09-09T17:59:05;19.90;74.40
20680;DHT22;10499;47.494;7.608;2022-09-09T18:01:33;19.90;74.90
20680;DHT22;10499;47.494;7.608;2022-09-09T18:04:02;19.80;75.00
20680;DHT22;10499;47.494;7.608;2022-09-09T18:06:33;19.80;75.60
20680;DHT22;10499;47.494;7.608;2022-09-09T18:09:02;19.70;75.80
20680;DHT22;10499;47.494;7.608;2022-09-09T18:11:30;19.70;76.30
20680;DHT22;10499;47.494;7.608;2022-09-09T18:13:59;19.60;76.20
20680;DHT22;10499;47.494;7.608;2022-09-09T18:16:26;19.50;76.80
20680;DHT22;10499;47.494;7.608;2022-09-09T18:18:54;19.40;76.70
20680;DHT22;10499;47.494;7.608;2022-09-09T18:21:20;19.40;77.50
20680;DHT22;10499;47.494;7.608;2022-09-09T18:23:47;19.30;77.80
20680;DHT22;10499;47.494;7.608;2022-09-09T18:26:19;19.20;78.00